San Ygnacio, Texas
Current Conditions -  °F | °C
As of 8:40 PM on Tuesday 21 Oct 2014 (Local Time) from MMNL Reporting Station
Broken Clouds Broken Clouds  
Wind Chill: 75°   Ceiling: 1000
Heat Index: 75°   Visibility: 5mi
Dew Point: 70°   Wind: 6mph
Humidity: 83%   Direction: 120°ESE
Pressure: 29.97"   Gusts: NA
Location:  27.04°N, 99.44°W
Report Text: MMNL 220140Z 12005KT 5SM BKN010 BKN070 24/21 A2997 RMK 8/720 HZY
Loading
Personal Weather Stations






























Interactive Weather Map
Tropical Storm Tracking
New forecast layout! Learn more

10-Day Weather Forecast

Advertisements
Track Severe Weather on mobile